sensor_id;sensor_type;location;lat;lon;timestamp;P1;durP1;ratioP1;P2;durP2;ratioP2
59127;SDS011;44912;52.754;5.994;2022-07-10T00:00:27;8.52;;;1.67;;
59127;SDS011;44912;52.754;5.994;2022-07-10T00:02:54;7.05;;;1.35;;
59127;SDS011;44912;52.754;5.994;2022-07-10T00:05:22;8.18;;;1.77;;
59127;SDS011;44912;52.754;5.994;2022-07-10T00:07:48;13.35;;;1.98;;
59127;SDS011;44912;52.754;5.994;2022-07-10T00:10:14;8.32;;;1.50;;
59127;SDS011;44912;52.754;5.994;2022-07-10T00:12:40;8.52;;;1.80;;
59127;SDS011;44912;52.754;5.994;2022-07-10T00:15:06;9.40;;;1.48;;
59127;SDS011;44912;52.754;5.994;2022-07-10T00:17:32;11.18;;;1.50;;
59127;SDS011;44912;52.754;5.994;2022-07-10T00:19:58;10.02;;;1.85;;
59127;SDS011;44912;52.754;5.994;2022-07-10T00:22:24;7.05;;;1.48;;
59127;SDS011;44912;52.754;5.994;2022-07-10T00:24:50;6.38;;;1.90;;
59127;SDS011;44912;52.754;5.994;2022-07-10T00:27:16;10.60;;;1.85;;
59127;SDS011;44912;52.754;5.994;2022-07-10T00:29:42;8.77;;;1.42;;
59127;SDS011;44912;52.754;5.994;2022-07-10T00:32:08;10.32;;;2.17;;
59127;SDS011;44912;52.754;5.994;2022-07-10T00:34:34;6.00;;;1.27;;
59127;SDS011;44912;52.754;5.994;2022-07-10T00:37:00;8.93;;;1.60;;
59127;SDS011;44912;52.754;5.994;2022-07-10T00:39:26;6.82;;;1.20;;
59127;SDS011;44912;52.754;5.994;2022-07-10T00:41:52;9.27;;;1.50;;
59127;SDS011;44912;52.754;5.994;2022-07-10T00:44:17;13.70;;;1.88;;
59127;SDS011;44912;52.754;5.994;2022-07-10T00:46:43;7.18;;;1.40;;
59127;SDS011;44912;52.754;5.994;2022-07-10T00:49:08;5.68;;;1.40;;
59127;SDS011;44912;52.754;5.994;2022-07-10T00:51:34;7.93;;;1.33;;
59127;SDS011;44912;52.754;5.994;2022-07-10T00:54:01;5.22;;;1.48;;
59127;SDS011;44912;52.754;5.994;2022-07-10T00:56:27;7.78;;;1.63;;
59127;SDS011;44912;52.754;5.994;2022-07-10T00:58:53;8.43;;;1.83;;
59127;SDS011;44912;52.754;5.994;2022-07-10T01:01:19;8.98;;;2.00;;
59127;SDS011;44912;52.754;5.994;2022-07-10T01:03:47;8.25;;;1.83;;
59127;SDS011;44912;52.754;5.994;2022-07-10T01:06:13;8.38;;;1.40;;
59127;SDS011;44912;52.754;5.994;2022-07-10T01:08:40;6.47;;;1.50;;
59127;SDS011;44912;52.754;5.994;2022-07-10T01:11:07;7.60;;;1.63;;
59127;SDS011;44912;52.754;5.994;2022-07-10T01:13:33;9.30;;;1.60;;
59127;SDS011;44912;52.754;5.994;2022-07-10T01:15:59;9.77;;;1.80;;
59127;SDS011;44912;52.754;5.994;2022-07-10T01:18:25;8.43;;;1.42;;
59127;SDS011;44912;52.754;5.994;2022-07-10T01:20:52;8.75;;;2.15;;
59127;SDS011;44912;52.754;5.994;2022-07-10T01:23:19;10.35;;;1.75;;
59127;SDS011;44912;52.754;5.994;2022-07-10T01:25:44;8.82;;;2.10;;
59127;SDS011;44912;52.754;5.994;2022-07-10T01:28:10;5.80;;;1.50;;
59127;SDS011;44912;52.754;5.994;2022-07-10T01:30:36;7.22;;;1.50;;
59127;SDS011;44912;52.754;5.994;2022-07-10T01:33:02;6.75;;;1.77;;
59127;SDS011;44912;52.754;5.994;2022-07-10T01:35:27;9.70;;;1.90;;
59127;SDS011;44912;52.754;5.994;2022-07-10T01:37:53;11.27;;;2.20;;
59127;SDS011;44912;52.754;5.994;2022-07-10T01:40:18;9.57;;;1.60;;
59127;SDS011;44912;52.754;5.994;2022-07-10T01:42:44;8.18;;;1.83;;
59127;SDS011;44912;52.754;5.994;2022-07-10T01:45:10;10.35;;;1.80;;
59127;SDS011;44912;52.754;5.994;2022-07-10T01:47:36;6.85;;;1.60;;
59127;SDS011;44912;52.754;5.994;2022-07-10T01:50:02;8.77;;;1.80;;
59127;SDS011;44912;52.754;5.994;2022-07-10T01:52:29;10.68;;;2.00;;
59127;SDS011;44912;52.754;5.994;2022-07-10T01:54:54;9.38;;;1.90;;
59127;SDS011;44912;52.754;5.994;2022-07-10T01:57:20;10.63;;;1.75;;
59127;SDS011;44912;52.754;5.994;2022-07-10T01:59:45;10.52;;;1.70;;
59127;SDS011;44912;52.754;5.994;2022-07-10T02:02:11;10.82;;;1.75;;
59127;SDS011;44912;52.754;5.994;2022-07-10T02:04:36;8.95;;;1.98;;
59127;SDS011;44912;52.754;5.994;2022-07-10T02:07:12;9.75;;;2.03;;
59127;SDS011;44912;52.754;5.994;2022-07-10T02:09:39;6.30;;;1.70;;
59127;SDS011;44912;52.754;5.994;2022-07-10T02:12:06;13.23;;;1.95;;
59127;SDS011;44912;52.754;5.994;2022-07-10T02:14:32;8.25;;;1.90;;
59127;SDS011;44912;52.754;5.994;2022-07-10T02:16:58;10.15;;;2.10;;
59127;SDS011;44912;52.754;5.994;2022-07-10T02:19:23;11.63;;;2.17;;
59127;SDS011;44912;52.754;5.994;2022-07-10T02:21:49;9.65;;;2.30;;
59127;SDS011;44912;52.754;5.994;2022-07-10T02:24:16;11.43;;;2.25;;
59127;SDS011;44912;52.754;5.994;2022-07-10T02:26:42;10.73;;;1.90;;
59127;SDS011;44912;52.754;5.994;2022-07-10T02:29:07;8.18;;;1.88;;
59127;SDS011;44912;52.754;5.994;2022-07-10T02:31:33;12.57;;;1.70;;
59127;SDS011;44912;52.754;5.994;2022-07-10T02:34:06;12.02;;;1.75;;
59127;SDS011;44912;52.754;5.994;2022-07-10T02:36:32;9.35;;;2.08;;
59127;SDS011;44912;52.754;5.994;2022-07-10T02:38:58;9.35;;;1.70;;
59127;SDS011;44912;52.754;5.994;2022-07-10T02:41:24;10.77;;;2.15;;
59127;SDS011;44912;52.754;5.994;2022-07-10T02:43:49;8.98;;;1.52;;
59127;SDS011;44912;52.754;5.994;2022-07-10T02:46:15;9.57;;;1.83;;
59127;SDS011;44912;52.754;5.994;2022-07-10T02:48:41;11.55;;;1.88;;
59127;SDS011;44912;52.754;5.994;2022-07-10T02:51:06;10.18;;;1.90;;
59127;SDS011;44912;52.754;5.994;2022-07-10T02:53:32;12.20;;;1.92;;
59127;SDS011;44912;52.754;5.994;2022-07-10T02:55:57;7.88;;;1.40;;
59127;SDS011;44912;52.754;5.994;2022-07-10T02:58:23;8.23;;;1.38;;
59127;SDS011;44912;52.754;5.994;2022-07-10T03:00:49;11.70;;;1.73;;
59127;SDS011;44912;52.754;5.994;2022-07-10T03:03:14;9.98;;;1.75;;
59127;SDS011;44912;52.754;5.994;2022-07-10T03:05:42;11.20;;;1.40;;
59127;SDS011;44912;52.754;5.994;2022-07-10T03:08:08;9.77;;;1.90;;
59127;SDS011;44912;52.754;5.994;2022-07-10T03:10:33;9.40;;;1.73;;
59127;SDS011;44912;52.754;5.994;2022-07-10T03:13:00;8.27;;;1.67;;
59127;SDS011;44912;52.754;5.994;2022-07-10T03:15:26;10.07;;;1.67;;
59127;SDS011;44912;52.754;5.994;2022-07-10T03:17:52;7.82;;;1.50;;
59127;SDS011;44912;52.754;5.994;2022-07-10T03:20:17;12.00;;;1.73;;
59127;SDS011;44912;52.754;5.994;2022-07-10T03:22:43;8.88;;;1.50;;
59127;SDS011;44912;52.754;5.994;2022-07-10T03:25:09;8.75;;;1.73;;
59127;SDS011;44912;52.754;5.994;2022-07-10T03:27:34;10.55;;;1.77;;
59127;SDS011;44912;52.754;5.994;2022-07-10T03:30:00;8.07;;;1.30;;
59127;SDS011;44912;52.754;5.994;2022-07-10T03:32:25;11.00;;;1.90;;
59127;SDS011;44912;52.754;5.994;2022-07-10T03:34:51;12.07;;;1.40;;
59127;SDS011;44912;52.754;5.994;2022-07-10T03:37:17;8.82;;;1.50;;
59127;SDS011;44912;52.754;5.994;2022-07-10T03:39:42;7.72;;;1.52;;
59127;SDS011;44912;52.754;5.994;2022-07-10T03:42:08;7.97;;;1.50;;
59127;SDS011;44912;52.754;5.994;2022-07-10T03:44:33;8.75;;;1.27;;
59127;SDS011;44912;52.754;5.994;2022-07-10T03:46:59;8.13;;;1.40;;
59127;SDS011;44912;52.754;5.994;2022-07-10T03:49:25;10.43;;;1.77;;
59127;SDS011;44912;52.754;5.994;2022-07-10T03:51:50;9.23;;;1.55;;
59127;SDS011;44912;52.754;5.994;2022-07-10T03:54:16;11.32;;;1.48;;
59127;SDS011;44912;52.754;5.994;2022-07-10T03:56:41;11.07;;;1.55;;
59127;SDS011;44912;52.754;5.994;2022-07-10T03:59:25;11.23;;;1.80;;
59127;SDS011;44912;52.754;5.994;2022-07-10T04:01:51;11.07;;;1.67;;
59127;SDS011;44912;52.754;5.994;2022-07-10T04:04:16;10.73;;;1.77;;
59127;SDS011;44912;52.754;5.994;2022-07-10T04:06:42;9.85;;;1.48;;
59127;SDS011;44912;52.754;5.994;2022-07-10T04:09:08;8.05;;;1.40;;
59127;SDS011;44912;52.754;5.994;2022-07-10T04:11:33;8.15;;;1.40;;
59127;SDS011;44912;52.754;5.994;2022-07-10T04:13:59;10.68;;;1.70;;
59127;SDS011;44912;52.754;5.994;2022-07-10T04:16:24;9.77;;;1.80;;
59127;SDS011;44912;52.754;5.994;2022-07-10T04:18:50;11.57;;;1.60;;
59127;SDS011;44912;52.754;5.994;2022-07-10T04:21:15;8.98;;;2.00;;
59127;SDS011;44912;52.754;5.994;2022-07-10T04:23:41;7.75;;;1.70;;
59127;SDS011;44912;52.754;5.994;2022-07-10T04:26:07;9.55;;;2.30;;
59127;SDS011;44912;52.754;5.994;2022-07-10T04:28:32;8.52;;;1.50;;
59127;SDS011;44912;52.754;5.994;2022-07-10T04:30:58;8.57;;;1.77;;
59127;SDS011;44912;52.754;5.994;2022-07-10T04:33:25;8.60;;;1.67;;
59127;SDS011;44912;52.754;5.994;2022-07-10T04:35:51;8.98;;;1.60;;
59127;SDS011;44912;52.754;5.994;2022-07-10T04:38:17;7.15;;;1.67;;
59127;SDS011;44912;52.754;5.994;2022-07-10T04:40:42;9.25;;;1.60;;
59127;SDS011;44912;52.754;5.994;2022-07-10T04:43:08;8.32;;;1.70;;
59127;SDS011;44912;52.754;5.994;2022-07-10T04:45:35;8.73;;;1.83;;
59127;SDS011;44912;52.754;5.994;2022-07-10T04:48:02;8.35;;;2.03;;
59127;SDS011;44912;52.754;5.994;2022-07-10T04:50:29;10.15;;;2.00;;
59127;SDS011;44912;52.754;5.994;2022-07-10T04:52:55;7.28;;;1.80;;
59127;SDS011;44912;52.754;5.994;2022-07-10T04:55:21;8.68;;;2.28;;
59127;SDS011;44912;52.754;5.994;2022-07-10T04:57:47;13.48;;;2.55;;
59127;SDS011;44912;52.754;5.994;2022-07-10T05:00:13;8.13;;;1.90;;
59127;SDS011;44912;52.754;5.994;2022-07-10T05:02:39;7.75;;;2.13;;
59127;SDS011;44912;52.754;5.994;2022-07-10T05:05:04;8.40;;;1.73;;
59127;SDS011;44912;52.754;5.994;2022-07-10T05:07:30;9.52;;;1.83;;
59127;SDS011;44912;52.754;5.994;2022-07-10T05:09:56;10.68;;;2.88;;
59127;SDS011;44912;52.754;5.994;2022-07-10T05:12:21;12.88;;;2.42;;
59127;SDS011;44912;52.754;5.994;2022-07-10T05:14:47;10.63;;;2.33;;
59127;SDS011;44912;52.754;5.994;2022-07-10T05:17:12;6.88;;;1.85;;
59127;SDS011;44912;52.754;5.994;2022-07-10T05:19:38;10.43;;;2.35;;
59127;SDS011;44912;52.754;5.994;2022-07-10T05:22:03;9.90;;;2.30;;
59127;SDS011;44912;52.754;5.994;2022-07-10T05:24:29;9.07;;;1.92;;
59127;SDS011;44912;52.754;5.994;2022-07-10T05:26:54;10.13;;;2.17;;
59127;SDS011;44912;52.754;5.994;2022-07-10T05:29:20;11.98;;;1.90;;
59127;SDS011;44912;52.754;5.994;2022-07-10T05:31:45;7.35;;;2.25;;
59127;SDS011;44912;52.754;5.994;2022-07-10T05:34:11;8.93;;;2.20;;
59127;SDS011;44912;52.754;5.994;2022-07-10T05:36:37;7.13;;;2.08;;
59127;SDS011;44912;52.754;5.994;2022-07-10T05:39:02;7.43;;;1.73;;
59127;SDS011;44912;52.754;5.994;2022-07-10T05:41:28;9.18;;;2.00;;
59127;SDS011;44912;52.754;5.994;2022-07-10T05:43:53;9.65;;;2.15;;
59127;SDS011;44912;52.754;5.994;2022-07-10T05:46:19;9.23;;;2.05;;
59127;SDS011;44912;52.754;5.994;2022-07-10T05:48:44;10.10;;;2.50;;
59127;SDS011;44912;52.754;5.994;2022-07-10T05:51:10;7.85;;;2.13;;
59127;SDS011;44912;52.754;5.994;2022-07-10T05:53:36;7.50;;;2.10;;
59127;SDS011;44912;52.754;5.994;2022-07-10T05:56:02;8.85;;;2.15;;
59127;SDS011;44912;52.754;5.994;2022-07-10T05:58:28;9.40;;;1.92;;
59127;SDS011;44912;52.754;5.994;2022-07-10T06:00:54;5.85;;;2.10;;
59127;SDS011;44912;52.754;5.994;2022-07-10T06:03:20;9.57;;;1.90;;
59127;SDS011;44912;52.754;5.994;2022-07-10T06:05:46;8.60;;;1.90;;
59127;SDS011;44912;52.754;5.994;2022-07-10T06:08:12;8.50;;;1.90;;
59127;SDS011;44912;52.754;5.994;2022-07-10T06:10:37;8.05;;;1.95;;
59127;SDS011;44912;52.754;5.994;2022-07-10T06:13:05;10.73;;;2.00;;
59127;SDS011;44912;52.754;5.994;2022-07-10T06:15:31;10.63;;;2.22;;
59127;SDS011;44912;52.754;5.994;2022-07-10T06:17:57;8.98;;;1.75;;
59127;SDS011;44912;52.754;5.994;2022-07-10T06:20:25;7.57;;;1.85;;
59127;SDS011;44912;52.754;5.994;2022-07-10T06:22:51;7.22;;;1.73;;
59127;SDS011;44912;52.754;5.994;2022-07-10T06:25:17;7.78;;;1.80;;
59127;SDS011;44912;52.754;5.994;2022-07-10T06:27:42;7.78;;;1.83;;
59127;SDS011;44912;52.754;5.994;2022-07-10T06:30:08;5.28;;;1.42;;
59127;SDS011;44912;52.754;5.994;2022-07-10T06:32:34;7.32;;;1.42;;
59127;SDS011;44912;52.754;5.994;2022-07-10T06:34:59;4.97;;;1.40;;
59127;SDS011;44912;52.754;5.994;2022-07-10T06:37:25;6.20;;;1.63;;
59127;SDS011;44912;52.754;5.994;2022-07-10T06:39:50;6.97;;;1.40;;
59127;SDS011;44912;52.754;5.994;2022-07-10T06:42:16;4.80;;;1.38;;
59127;SDS011;44912;52.754;5.994;2022-07-10T06:44:42;6.22;;;1.60;;
59127;SDS011;44912;52.754;5.994;2022-07-10T06:47:08;7.82;;;1.67;;
59127;SDS011;44912;52.754;5.994;2022-07-10T06:49:54;6.30;;;1.55;;
59127;SDS011;44912;52.754;5.994;2022-07-10T06:52:19;6.15;;;1.50;;
59127;SDS011;44912;52.754;5.994;2022-07-10T06:54:46;7.95;;;1.80;;
59127;SDS011;44912;52.754;5.994;2022-07-10T06:57:11;6.20;;;1.70;;
59127;SDS011;44912;52.754;5.994;2022-07-10T06:59:37;7.93;;;1.70;;
59127;SDS011;44912;52.754;5.994;2022-07-10T07:02:03;7.30;;;1.83;;
59127;SDS011;44912;52.754;5.994;2022-07-10T07:04:29;5.65;;;1.80;;
59127;SDS011;44912;52.754;5.994;2022-07-10T07:06:55;7.85;;;1.90;;
59127;SDS011;44912;52.754;5.994;2022-07-10T07:09:20;7.88;;;1.80;;
59127;SDS011;44912;52.754;5.994;2022-07-10T07:11:46;7.38;;;1.90;;
59127;SDS011;44912;52.754;5.994;2022-07-10T07:14:12;6.13;;;2.03;;
59127;SDS011;44912;52.754;5.994;2022-07-10T07:16:38;7.22;;;2.10;;
59127;SDS011;44912;52.754;5.994;2022-07-10T07:19:08;12.27;;;3.03;;
59127;SDS011;44912;52.754;5.994;2022-07-10T07:21:42;8.30;;;2.50;;
59127;SDS011;44912;52.754;5.994;2022-07-10T07:24:26;9.00;;;2.28;;
59127;SDS011;44912;52.754;5.994;2022-07-10T07:26:52;10.70;;;2.58;;
59127;SDS011;44912;52.754;5.994;2022-07-10T07:29:18;7.20;;;2.63;;
59127;SDS011;44912;52.754;5.994;2022-07-10T07:31:44;8.88;;;2.40;;
59127;SDS011;44912;52.754;5.994;2022-07-10T07:34:09;8.90;;;2.60;;
59127;SDS011;44912;52.754;5.994;2022-07-10T07:36:36;7.20;;;1.92;;
59127;SDS011;44912;52.754;5.994;2022-07-10T07:39:02;5.22;;;1.80;;
59127;SDS011;44912;52.754;5.994;2022-07-10T07:41:28;8.85;;;1.95;;
59127;SDS011;44912;52.754;5.994;2022-07-10T07:43:53;9.38;;;1.90;;
59127;SDS011;44912;52.754;5.994;2022-07-10T07:46:19;7.60;;;1.92;;
59127;SDS011;44912;52.754;5.994;2022-07-10T07:48:45;8.43;;;1.85;;
59127;SDS011;44912;52.754;5.994;2022-07-10T07:51:11;7.28;;;1.90;;
59127;SDS011;44912;52.754;5.994;2022-07-10T07:53:37;7.70;;;1.92;;
59127;SDS011;44912;52.754;5.994;2022-07-10T07:56:02;6.68;;;1.77;;
59127;SDS011;44912;52.754;5.994;2022-07-10T07:58:28;6.70;;;1.80;;
59127;SDS011;44912;52.754;5.994;2022-07-10T08:00:55;6.93;;;2.03;;
59127;SDS011;44912;52.754;5.994;2022-07-10T08:03:21;8.38;;;1.80;;
59127;SDS011;44912;52.754;5.994;2022-07-10T08:05:47;8.63;;;1.83;;
59127;SDS011;44912;52.754;5.994;2022-07-10T08:08:13;9.32;;;2.20;;
59127;SDS011;44912;52.754;5.994;2022-07-10T08:10:39;7.82;;;1.90;;
59127;SDS011;44912;52.754;5.994;2022-07-10T08:13:04;7.13;;;2.03;;
59127;SDS011;44912;52.754;5.994;2022-07-10T08:15:30;6.43;;;2.30;;
59127;SDS011;44912;52.754;5.994;2022-07-10T08:17:57;8.45;;;1.70;;
59127;SDS011;44912;52.754;5.994;2022-07-10T08:20:24;8.35;;;2.10;;
59127;SDS011;44912;52.754;5.994;2022-07-10T08:22:51;6.40;;;1.80;;
59127;SDS011;44912;52.754;5.994;2022-07-10T08:25:18;10.75;;;2.28;;
59127;SDS011;44912;52.754;5.994;2022-07-10T08:27:44;6.53;;;1.95;;
59127;SDS011;44912;52.754;5.994;2022-07-10T08:30:10;5.95;;;1.50;;
59127;SDS011;44912;52.754;5.994;2022-07-10T08:32:37;6.18;;;1.70;;
59127;SDS011;44912;52.754;5.994;2022-07-10T08:35:03;5.32;;;1.10;;
59127;SDS011;44912;52.754;5.994;2022-07-10T08:37:30;5.38;;;1.52;;
59127;SDS011;44912;52.754;5.994;2022-07-10T08:40:06;7.43;;;1.58;;
59127;SDS011;44912;52.754;5.994;2022-07-10T08:42:33;4.13;;;1.30;;
59127;SDS011;44912;52.754;5.994;2022-07-10T08:45:00;8.32;;;1.40;;
59127;SDS011;44912;52.754;5.994;2022-07-10T08:47:25;8.45;;;1.70;;
59127;SDS011;44912;52.754;5.994;2022-07-10T08:49:52;8.07;;;1.60;;
59127;SDS011;44912;52.754;5.994;2022-07-10T08:53:00;7.05;;;1.50;;
59127;SDS011;44912;52.754;5.994;2022-07-10T08:55:20;6.57;;;1.70;;
59127;SDS011;44912;52.754;5.994;2022-07-10T08:57:49;4.45;;;1.40;;
59127;SDS011;44912;52.754;5.994;2022-07-10T09:00:16;3.17;;;1.30;;
59127;SDS011;44912;52.754;5.994;2022-07-10T09:02:41;5.03;;;1.40;;
59127;SDS011;44912;52.754;5.994;2022-07-10T09:05:07;6.07;;;1.30;;
59127;SDS011;44912;52.754;5.994;2022-07-10T09:07:37;6.72;;;1.50;;
59127;SDS011;44912;52.754;5.994;2022-07-10T09:10:07;5.75;;;1.30;;
59127;SDS011;44912;52.754;5.994;2022-07-10T09:15:19;6.07;;;1.60;;
59127;SDS011;44912;52.754;5.994;2022-07-10T09:20:29;7.70;;;1.85;;
59127;SDS011;44912;52.754;5.994;2022-07-10T09:22:58;8.57;;;1.63;;
59127;SDS011;44912;52.754;5.994;2022-07-10T09:25:40;5.30;;;1.65;;
59127;SDS011;44912;52.754;5.994;2022-07-10T09:28:05;6.55;;;1.80;;
59127;SDS011;44912;52.754;5.994;2022-07-10T09:41:14;5.93;;;1.60;;
59127;SDS011;44912;52.754;5.994;2022-07-10T09:46:21;7.07;;;2.20;;
59127;SDS011;44912;52.754;5.994;2022-07-10T09:49:01;7.18;;;1.75;;
59127;SDS011;44912;52.754;5.994;2022-07-10T09:51:32;6.95;;;1.85;;
59127;SDS011;44912;52.754;5.994;2022-07-10T09:54:00;6.60;;;1.92;;
59127;SDS011;44912;52.754;5.994;2022-07-10T09:56:27;6.97;;;1.80;;
59127;SDS011;44912;52.754;5.994;2022-07-10T09:58:58;5.25;;;1.50;;
59127;SDS011;44912;52.754;5.994;2022-07-10T10:01:25;7.32;;;1.70;;
59127;SDS011;44912;52.754;5.994;2022-07-10T10:03:53;7.78;;;1.63;;
59127;SDS011;44912;52.754;5.994;2022-07-10T10:06:20;4.43;;;1.70;;
59127;SDS011;44912;52.754;5.994;2022-07-10T10:08:51;6.03;;;1.67;;
59127;SDS011;44912;52.754;5.994;2022-07-10T10:11:21;4.80;;;1.60;;
59127;SDS011;44912;52.754;5.994;2022-07-10T10:13:50;6.70;;;1.83;;
59127;SDS011;44912;52.754;5.994;2022-07-10T10:16:18;6.72;;;1.70;;
59127;SDS011;44912;52.754;5.994;2022-07-10T10:18:46;8.32;;;2.15;;
59127;SDS011;44912;52.754;5.994;2022-07-10T10:21:35;8.65;;;1.73;;
59127;SDS011;44912;52.754;5.994;2022-07-10T10:24:01;7.03;;;1.50;;
59127;SDS011;44912;52.754;5.994;2022-07-10T10:26:27;5.03;;;1.67;;
59127;SDS011;44912;52.754;5.994;2022-07-10T10:28:57;6.32;;;1.40;;
59127;SDS011;44912;52.754;5.994;2022-07-10T10:31:28;7.15;;;1.50;;
59127;SDS011;44912;52.754;5.994;2022-07-10T10:33:55;6.18;;;1.70;;
59127;SDS011;44912;52.754;5.994;2022-07-10T10:37:04;5.35;;;1.70;;
59127;SDS011;44912;52.754;5.994;2022-07-10T10:46:32;6.18;;;1.80;;
59127;SDS011;44912;52.754;5.994;2022-07-10T10:49:03;7.25;;;1.80;;
59127;SDS011;44912;52.754;5.994;2022-07-10T10:52:18;6.22;;;1.42;;
59127;SDS011;44912;52.754;5.994;2022-07-10T10:54:26;6.45;;;1.50;;
59127;SDS011;44912;52.754;5.994;2022-07-10T10:59:44;6.57;;;1.52;;
59127;SDS011;44912;52.754;5.994;2022-07-10T11:04:49;5.72;;;1.55;;
59127;SDS011;44912;52.754;5.994;2022-07-10T11:10:26;10.38;;;1.58;;
59127;SDS011;44912;52.754;5.994;2022-07-10T11:13:05;3.88;;;1.48;;
59127;SDS011;44912;52.754;5.994;2022-07-10T11:15:37;9.05;;;1.40;;
59127;SDS011;44912;52.754;5.994;2022-07-10T11:18:11;5.50;;;1.40;;
59127;SDS011;44912;52.754;5.994;2022-07-10T11:20:42;6.03;;;1.58;;
59127;SDS011;44912;52.754;5.994;2022-07-10T11:28:50;9.02;;;1.77;;
59127;SDS011;44912;52.754;5.994;2022-07-10T11:31:18;7.28;;;1.73;;
59127;SDS011;44912;52.754;5.994;2022-07-10T11:33:54;8.27;;;1.88;;
59127;SDS011;44912;52.754;5.994;2022-07-10T11:36:25;5.20;;;1.45;;
59127;SDS011;44912;52.754;5.994;2022-07-10T11:38:58;6.88;;;1.70;;
59127;SDS011;44912;52.754;5.994;2022-07-10T11:41:25;6.47;;;1.52;;
59127;SDS011;44912;52.754;5.994;2022-07-10T11:46:16;3.75;;;1.38;;
59127;SDS011;44912;52.754;5.994;2022-07-10T11:48:43;4.75;;;1.25;;
59127;SDS011;44912;52.754;5.994;2022-07-10T11:51:23;5.35;;;1.40;;
59127;SDS011;44912;52.754;5.994;2022-07-10T11:54:00;3.45;;;1.17;;
59127;SDS011;44912;52.754;5.994;2022-07-10T11:56:37;7.32;;;1.50;;
59127;SDS011;44912;52.754;5.994;2022-07-10T11:59:07;5.10;;;1.50;;
59127;SDS011;44912;52.754;5.994;2022-07-10T12:01:34;7.03;;;1.50;;
59127;SDS011;44912;52.754;5.994;2022-07-10T12:04:06;6.28;;;1.40;;
59127;SDS011;44912;52.754;5.994;2022-07-10T12:06:34;4.55;;;1.50;;
59127;SDS011;44912;52.754;5.994;2022-07-10T12:09:05;5.85;;;1.30;;
59127;SDS011;44912;52.754;5.994;2022-07-10T12:11:35;6.63;;;1.75;;
59127;SDS011;44912;52.754;5.994;2022-07-10T12:17:00;6.15;;;1.70;;
59127;SDS011;44912;52.754;5.994;2022-07-10T12:19:27;6.15;;;1.48;;
59127;SDS011;44912;52.754;5.994;2022-07-10T12:21:58;5.80;;;1.30;;
59127;SDS011;44912;52.754;5.994;2022-07-10T12:24:25;4.35;;;1.10;;
59127;SDS011;44912;52.754;5.994;2022-07-10T12:26:51;5.20;;;1.50;;
59127;SDS011;44912;52.754;5.994;2022-07-10T12:31:45;5.40;;;1.30;;
59127;SDS011;44912;52.754;5.994;2022-07-10T12:34:12;6.05;;;1.20;;
59127;SDS011;44912;52.754;5.994;2022-07-10T12:39:17;3.55;;;1.10;;
59127;SDS011;44912;52.754;5.994;2022-07-10T12:42:00;5.40;;;1.23;;
59127;SDS011;44912;52.754;5.994;2022-07-10T12:47:02;6.65;;;1.52;;
59127;SDS011;44912;52.754;5.994;2022-07-10T12:49:31;4.85;;;1.20;;
59127;SDS011;44912;52.754;5.994;2022-07-10T12:52:23;6.15;;;1.20;;
59127;SDS011;44912;52.754;5.994;2022-07-10T13:00:20;3.17;;;1.38;;
59127;SDS011;44912;52.754;5.994;2022-07-10T13:02:48;6.25;;;1.40;;
59127;SDS011;44912;52.754;5.994;2022-07-10T13:05:25;4.25;;;0.90;;
59127;SDS011;44912;52.754;5.994;2022-07-10T13:07:52;4.23;;;1.00;;
59127;SDS011;44912;52.754;5.994;2022-07-10T13:10:30;3.67;;;1.20;;
59127;SDS011;44912;52.754;5.994;2022-07-10T13:12:55;5.68;;;1.20;;
59127;SDS011;44912;52.754;5.994;2022-07-10T13:15:21;4.43;;;1.38;;
59127;SDS011;44912;52.754;5.994;2022-07-10T13:17:48;4.32;;;0.90;;
59127;SDS011;44912;52.754;5.994;2022-07-10T13:20:13;3.85;;;0.90;;
59127;SDS011;44912;52.754;5.994;2022-07-10T13:22:39;3.55;;;1.08;;
59127;SDS011;44912;52.754;5.994;2022-07-10T13:25:05;5.97;;;1.33;;
59127;SDS011;44912;52.754;5.994;2022-07-10T13:27:31;3.88;;;1.25;;
59127;SDS011;44912;52.754;5.994;2022-07-10T13:29:57;4.85;;;1.10;;
59127;SDS011;44912;52.754;5.994;2022-07-10T13:32:23;3.80;;;0.80;;
59127;SDS011;44912;52.754;5.994;2022-07-10T13:34:48;4.95;;;1.15;;
59127;SDS011;44912;52.754;5.994;2022-07-10T13:37:14;5.30;;;1.10;;
59127;SDS011;44912;52.754;5.994;2022-07-10T13:39:40;2.75;;;0.90;;
59127;SDS011;44912;52.754;5.994;2022-07-10T13:42:05;3.45;;;1.08;;
59127;SDS011;44912;52.754;5.994;2022-07-10T13:44:31;4.03;;;1.17;;
59127;SDS011;44912;52.754;5.994;2022-07-10T13:46:56;2.85;;;1.00;;
59127;SDS011;44912;52.754;5.994;2022-07-10T13:49:22;3.63;;;0.90;;
59127;SDS011;44912;52.754;5.994;2022-07-10T13:51:48;4.95;;;0.98;;
59127;SDS011;44912;52.754;5.994;2022-07-10T13:54:13;3.40;;;1.00;;
59127;SDS011;44912;52.754;5.994;2022-07-10T13:56:39;2.78;;;1.10;;
59127;SDS011;44912;52.754;5.994;2022-07-10T13:59:05;3.28;;;1.10;;
59127;SDS011;44912;52.754;5.994;2022-07-10T14:01:31;3.22;;;1.00;;
59127;SDS011;44912;52.754;5.994;2022-07-10T14:03:57;5.38;;;1.10;;
59127;SDS011;44912;52.754;5.994;2022-07-10T14:06:22;5.03;;;1.20;;
59127;SDS011;44912;52.754;5.994;2022-07-10T14:08:48;3.67;;;1.00;;
59127;SDS011;44912;52.754;5.994;2022-07-10T14:11:13;9.05;;;1.55;;
59127;SDS011;44912;52.754;5.994;2022-07-10T14:13:39;4.00;;;1.10;;
59127;SDS011;44912;52.754;5.994;2022-07-10T14:16:05;6.55;;;1.45;;
59127;SDS011;44912;52.754;5.994;2022-07-10T14:18:30;7.07;;;1.88;;
59127;SDS011;44912;52.754;5.994;2022-07-10T14:21:09;6.47;;;1.73;;
59127;SDS011;44912;52.754;5.994;2022-07-10T14:23:37;6.28;;;1.50;;
59127;SDS011;44912;52.754;5.994;2022-07-10T14:26:04;4.57;;;1.25;;
59127;SDS011;44912;52.754;5.994;2022-07-10T14:28:31;5.10;;;1.23;;
59127;SDS011;44912;52.754;5.994;2022-07-10T14:30:57;6.18;;;1.15;;
59127;SDS011;44912;52.754;5.994;2022-07-10T14:33:25;6.00;;;1.25;;
59127;SDS011;44912;52.754;5.994;2022-07-10T14:35:51;4.43;;;1.10;;
59127;SDS011;44912;52.754;5.994;2022-07-10T14:38:16;5.38;;;1.10;;
59127;SDS011;44912;52.754;5.994;2022-07-10T14:40:42;5.00;;;1.27;;
59127;SDS011;44912;52.754;5.994;2022-07-10T14:43:07;5.32;;;1.17;;
59127;SDS011;44912;52.754;5.994;2022-07-10T14:45:33;3.50;;;1.25;;
59127;SDS011;44912;52.754;5.994;2022-07-10T14:47:59;5.40;;;1.27;;
59127;SDS011;44912;52.754;5.994;2022-07-10T14:50:24;5.90;;;1.40;;
59127;SDS011;44912;52.754;5.994;2022-07-10T14:52:50;5.00;;;1.55;;
59127;SDS011;44912;52.754;5.994;2022-07-10T14:55:16;5.38;;;1.70;;
59127;SDS011;44912;52.754;5.994;2022-07-10T14:57:43;6.65;;;1.52;;
59127;SDS011;44912;52.754;5.994;2022-07-10T15:00:08;3.83;;;1.23;;
59127;SDS011;44912;52.754;5.994;2022-07-10T15:02:34;4.15;;;1.25;;
59127;SDS011;44912;52.754;5.994;2022-07-10T15:05:00;3.33;;;1.23;;
59127;SDS011;44912;52.754;5.994;2022-07-10T15:07:27;3.95;;;1.42;;
59127;SDS011;44912;52.754;5.994;2022-07-10T15:09:53;2.55;;;1.33;;
59127;SDS011;44912;52.754;5.994;2022-07-10T15:12:19;4.63;;;1.45;;
59127;SDS011;44912;52.754;5.994;2022-07-10T15:14:47;6.38;;;1.75;;
59127;SDS011;44912;52.754;5.994;2022-07-10T15:17:12;6.15;;;2.00;;
59127;SDS011;44912;52.754;5.994;2022-07-10T15:19:38;6.60;;;2.28;;
59127;SDS011;44912;52.754;5.994;2022-07-10T15:22:03;5.43;;;2.60;;
59127;SDS011;44912;52.754;5.994;2022-07-10T15:24:29;5.22;;;2.22;;
59127;SDS011;44912;52.754;5.994;2022-07-10T15:26:56;8.52;;;2.30;;
59127;SDS011;44912;52.754;5.994;2022-07-10T15:29:22;6.43;;;2.10;;
59127;SDS011;44912;52.754;5.994;2022-07-10T15:31:50;5.25;;;1.88;;
59127;SDS011;44912;52.754;5.994;2022-07-10T15:34:16;6.05;;;2.30;;
59127;SDS011;44912;52.754;5.994;2022-07-10T15:36:41;8.23;;;2.30;;
59127;SDS011;44912;52.754;5.994;2022-07-10T15:39:08;6.15;;;2.20;;
59127;SDS011;44912;52.754;5.994;2022-07-10T15:41:34;7.15;;;2.28;;
59127;SDS011;44912;52.754;5.994;2022-07-10T15:44:00;7.70;;;2.30;;